Time;durP1;ratioP1;P1;durP2;ratioP2;P2;SDS_P1;SDS_P2;PMS_P1;PMS_P2;Temp;Humidity;BMP_temperature;BMP_pressure;BME280_temperature;BME280_humidity;BME280_pressure;Samples;Min_cycle;Max_cycle;Signal;HPM_P1;HPM_P2
2024/01/25 00:00:23;;;;;;;45.40;10.40;;;8.40;18.50;;;;;;5114323;28;20180;-64
2024/01/25 00:02:58;;;;;;;41.77;11.33;;;8.40;16.20;;;;;;5114653;28;20153;-63
2024/01/25 00:05:29;;;;;;;32.23;10.67;;;8.50;15.10;;;;;;5114188;28;20200;-64
2024/01/25 00:08:30;;;;;;;;;;;;;;;;;;;;;
2024/01/25 00:11:13;;;;;;;40.13;11.27;;;8.50;20.40;;;;;;5114001;28;20170;-63
2024/01/25 00:13:41;;;;;;;40.77;12.10;;;8.50;14.20;;;;;;5113837;28;20172;-64
2024/01/25 00:16:22;;;;;;;35.53;10.53;;;8.50;10.60;;;;;;5114127;28;20218;-63
2024/01/25 00:19:48;;;;;;;;;;;;;;;;;;;;;
2024/01/25 00:22:32;;;;;;;35.17;10.50;;;8.50;1.00;;;;;;5111891;28;20187;-64
2024/01/25 00:25:27;;;;;;;34.63;10.60;;;8.40;1.00;;;;;;5091175;28;20188;-63
2024/01/25 00:27:58;;;;;;;41.73;10.87;;;8.40;1.00;;;;;;5104329;28;20742;-63
2024/01/25 00:30:34;;;;;;;42.80;11.00;;;8.40;7.30;;;;;;5113927;28;20200;-64
2024/01/25 00:33:30;;;;;;;31.20;10.27;;;8.40;14.30;;;;;;5113925;28;20605;-64
2024/01/25 00:36:23;;;;;;;31.80;9.97;;;8.40;1.00;;;;;;5113715;28;20172;-64
2024/01/25 00:39:04;;;;;;;32.67;11.37;;;8.40;1.00;;;;;;5113667;28;20220;-63
2024/01/25 00:41:54;;;;;;;36.07;10.47;;;8.40;1.00;;;;;;5112322;28;20317;-64
2024/01/25 00:44:45;;;;;;;42.73;11.53;;;8.40;1.00;;;;;;5114618;28;20587;-64
2024/01/25 00:50:12;;;;;;;33.33;11.37;;;8.30;11.10;;;;;;5114009;28;20205;-63
2024/01/25 00:52:41;;;;;;;37.30;10.80;;;8.30;5.60;;;;;;5113399;28;20243;-64
2024/01/25 00:56:02;;;;;;;34.53;10.53;;;8.30;8.20;;;;;;5113690;28;20168;-64
2024/01/25 01:01:57;;;;;;;40.57;11.17;;;8.30;4.30;;;;;;5096991;28;20260;-63
2024/01/25 01:08:10;;;;;;;44.97;11.23;;;8.30;1.00;;;;;;5111194;28;20200;-64
2024/01/25 01:10:59;;;;;;;44.80;11.37;;;8.30;1.00;;;;;;5111462;28;20168;-64
2024/01/25 01:13:50;;;;;;;41.03;10.10;;;8.30;1.00;;;;;;5113083;28;20184;-63
2024/01/25 01:16:41;;;;;;;27.87;9.90;;;8.40;1.00;;;;;;5113736;28;20528;-64
2024/01/25 01:19:33;;;;;;;28.03;10.20;;;8.40;1.00;;;;;;5113418;28;20199;-64
2024/01/25 01:22:37;;;;;;;42.93;11.33;;;8.30;1.00;;;;;;5113134;27;20188;-64
2024/01/25 01:25:23;;;;;;;35.27;10.97;;;8.20;1.00;;;;;;5113014;28;20703;-64
2024/01/25 01:28:08;;;;;;;29.77;10.10;;;8.20;1.00;;;;;;5113854;28;20185;-64
2024/01/25 01:30:46;;;;;;;37.60;10.27;;;8.20;1.00;;;;;;5113713;28;20173;-63
2024/01/25 01:33:37;;;;;;;36.87;11.73;;;8.20;1.00;;;;;;5113274;28;20270;-63
2024/01/25 01:36:18;;;;;;;26.10;9.93;;;8.20;1.00;;;;;;5113607;28;20177;-64
2024/01/25 01:39:00;;;;;;;30.83;11.37;;;8.30;1.00;;;;;;5113281;28;20196;-63
2024/01/25 01:42:01;;;;;;;43.07;10.87;;;8.20;1.00;;;;;;5116918;27;20181;-63
2024/01/25 01:44:57;;;;;;;32.83;9.73;;;8.20;1.00;;;;;;5117075;28;20152;-63
2024/01/25 01:47:43;;;;;;;36.47;10.50;;;8.20;1.00;;;;;;5117213;28;20176;-63
2024/01/25 01:50:33;;;;;;;39.60;10.60;;;8.20;1.00;;;;;;5117087;27;20208;-63
2024/01/25 01:53:03;;;;;;;31.73;10.67;;;8.20;1.00;;;;;;5116473;28;20173;-64
2024/01/25 01:55:44;;;;;;;29.53;9.83;;;8.20;1.00;;;;;;5117322;28;20249;-64
2024/01/25 01:58:13;;;;;;;36.93;10.33;;;8.20;1.00;;;;;;5116679;28;20212;-63
2024/01/25 02:00:59;;;;;;;35.13;10.00;;;8.20;1.00;;;;;;5116551;27;20204;-64
2024/01/25 02:04:01;;;;;;;;;;;;;;;;;;;;;
2024/01/25 02:07:01;;;;;;;39.23;11.23;;;8.20;1.00;;;;;;5117070;28;20198;-63
2024/01/25 02:09:56;;;;;;;29.23;10.30;;;8.20;1.00;;;;;;5116762;28;20551;-63
2024/01/25 02:12:58;;;;;;;32.87;9.63;;;8.20;1.00;;;;;;5116242;28;20260;-64
2024/01/25 02:16:14;;;;;;;41.43;10.23;;;8.20;1.00;;;;;;5074119;28;20194;-63
2024/01/25 02:18:57;;;;;;;43.17;10.33;;;8.20;1.00;;;;;;5116103;28;20234;-63
2024/01/25 02:21:43;;;;;;;33.33;10.57;;;8.20;1.00;;;;;;5116303;28;20173;-63
2024/01/25 02:24:34;;;;;;;37.33;10.73;;;8.20;1.00;;;;;;5116698;28;20247;-63
2024/01/25 02:27:44;;;;;;;31.87;9.93;;;8.20;1.00;;;;;;5095916;28;20299;-64
2024/01/25 02:30:39;;;;;;;;;;;;;;;;;;;;;
2024/01/25 02:33:25;;;;;;;36.43;8.90;;;8.20;1.00;;;;;;5116576;28;20175;-64
2024/01/25 02:36:08;;;;;;;33.97;9.77;;;8.10;1.00;;;;;;5115850;28;20187;-64
2024/01/25 02:39:28;;;;;;;33.13;9.63;;;8.10;1.00;;;;;;5115511;28;20192;-62
2024/01/25 02:42:34;;;;;;;37.67;9.07;;;8.10;1.00;;;;;;5115841;28;20177;-63
2024/01/25 02:45:48;;;;;;;31.37;9.97;;;8.10;1.00;;;;;;5115669;28;20229;-63
2024/01/25 02:48:56;;;;;;;38.40;10.40;;;8.10;1.00;;;;;;5094621;28;20215;-64
2024/01/25 02:51:39;;;;;;;28.90;8.63;;;8.00;1.00;;;;;;5071784;28;20285;-64
2024/01/25 02:54:38;;;;;;;38.37;10.07;;;8.00;1.00;;;;;;5115411;28;20223;-63
2024/01/25 02:57:33;;;;;;;26.60;8.77;;;8.00;1.00;;;;;;5115418;28;20219;-64
2024/01/25 03:00:09;;;;;;;40.97;11.27;;;7.90;1.00;;;;;;5108459;27;20184;-63
2024/01/25 03:02:45;;;;;;;37.97;10.50;;;7.90;1.00;;;;;;5114041;28;20202;-63
2024/01/25 03:05:35;;;;;;;37.43;10.47;;;7.90;1.00;;;;;;5113934;28;20203;-64
2024/01/25 03:08:21;;;;;;;27.13;8.93;;;7.90;1.00;;;;;;5115212;28;20608;-63
2024/01/25 03:14:04;;;;;;;;;;;;;;;;;;;;;
2024/01/25 03:16:44;;;;;;;30.77;8.00;;;7.80;1.00;;;;;;5115305;28;20157;-63
2024/01/25 03:19:26;;;;;;;28.30;9.13;;;7.70;1.00;;;;;;5113759;28;20200;-63
2024/01/25 03:22:06;;;;;;;38.13;9.70;;;7.70;1.00;;;;;;5115139;28;20248;-63
2024/01/25 03:25:02;;;;;;;36.43;10.13;;;7.70;1.00;;;;;;5115036;28;20176;-63
2024/01/25 03:27:54;;;;;;;38.03;9.50;;;7.70;1.00;;;;;;5114854;28;20184;-63
2024/01/25 03:30:35;;;;;;;40.27;9.73;;;7.70;1.00;;;;;;5114801;28;20657;-63
2024/01/25 03:36:13;;;;;;;38.83;10.80;;;7.60;1.00;;;;;;5113813;28;20188;-63
2024/01/25 03:39:00;;;;;;;33.67;10.83;;;7.60;1.00;;;;;;5114438;28;20229;-63
2024/01/25 03:41:44;;;;;;;;;;;;;;;;;;;;;
2024/01/25 03:44:37;;;;;;;36.93;9.67;;;7.70;1.00;;;;;;5115227;28;20156;-63
2024/01/25 03:47:18;;;;;;;32.03;9.23;;;7.60;1.00;;;;;;5114562;28;20199;-63
2024/01/25 03:53:23;;;;;;;31.13;9.23;;;7.60;1.00;;;;;;5071679;28;20557;-63
2024/01/25 03:56:13;;;;;;;31.63;9.73;;;7.50;1.00;;;;;;5071708;28;20231;-63
2024/01/25 03:59:21;;;;;;;33.10;9.83;;;7.50;1.00;;;;;;5108482;28;20224;-64
2024/01/25 04:01:57;;;;;;;30.23;9.20;;;7.40;1.00;;;;;;5073152;28;20220;-63
2024/01/25 04:04:38;;;;;;;32.23;9.40;;;7.40;1.00;;;;;;5093994;28;20210;-63
2024/01/25 04:07:04;;;;;;;27.37;9.00;;;7.40;1.00;;;;;;5094036;28;20595;-63
2024/01/25 04:09:29;;;;;;;41.67;9.60;;;7.30;1.00;;;;;;5093963;28;20181;-63
2024/01/25 04:11:56;;;;;;;33.53;10.03;;;7.20;1.00;;;;;;5093858;28;20179;-63
2024/01/25 04:14:22;;;;;;;34.50;9.90;;;7.20;1.00;;;;;;5094386;28;20654;-63
2024/01/25 04:16:48;;;;;;;38.00;9.30;;;7.20;12.90;;;;;;5094224;28;20166;-64
2024/01/25 04:19:14;;;;;;;28.00;9.37;;;7.10;34.00;;;;;;5093684;28;20654;-64
2024/01/25 04:21:40;;;;;;;35.80;9.60;;;7.10;45.40;;;;;;5093769;28;20335;-63
2024/01/25 04:24:06;;;;;;;32.03;9.97;;;7.00;58.50;;;;;;5093815;28;20184;-63
2024/01/25 04:26:32;;;;;;;37.97;10.83;;;7.00;65.70;;;;;;5092260;28;20205;-63
2024/01/25 04:28:57;;;;;;;36.53;9.77;;;7.00;67.20;;;;;;5094460;28;20250;-64
2024/01/25 04:31:23;;;;;;;38.13;9.33;;;7.00;82.10;;;;;;5094005;28;20504;-64
2024/01/25 04:33:49;;;;;;;38.33;10.07;;;6.90;77.00;;;;;;5093567;28;20222;-64
2024/01/25 04:36:15;;;;;;;37.77;9.70;;;6.90;90.60;;;;;;5093883;28;20176;-64
2024/01/25 04:38:40;;;;;;;30.03;10.63;;;6.90;93.30;;;;;;5093606;28;20197;-64
2024/01/25 04:41:06;;;;;;;36.83;8.93;;;6.80;97.20;;;;;;5093544;28;20177;-63
2024/01/25 04:43:36;;;;;;;30.63;9.37;;;6.80;99.90;;;;;;5093518;28;20643;-64
2024/01/25 04:46:02;;;;;;;33.17;9.63;;;6.80;99.90;;;;;;5093614;28;20674;-63
2024/01/25 04:48:29;;;;;;;22.37;9.27;;;6.70;99.90;;;;;;5093714;28;20209;-64
2024/01/25 04:50:58;;;;;;;40.80;10.50;;;6.70;99.90;;;;;;5093763;28;20177;-63
2024/01/25 04:53:23;;;;;;;34.57;10.47;;;6.60;99.90;;;;;;5093502;28;20252;-64
2024/01/25 04:55:49;;;;;;;39.50;10.70;;;6.60;99.90;;;;;;5093409;28;20325;-64
2024/01/25 04:58:15;;;;;;;35.17;9.73;;;6.60;99.90;;;;;;5093181;28;20279;-63
2024/01/25 05:00:41;;;;;;;24.43;10.37;;;6.50;99.90;;;;;;5093888;28;20256;-64
2024/01/25 05:03:06;;;;;;;34.97;10.33;;;6.50;99.90;;;;;;5093606;28;20626;-63
2024/01/25 05:05:32;;;;;;;38.00;10.73;;;6.50;99.90;;;;;;5093272;28;20197;-63
2024/01/25 05:07:58;;;;;;;43.07;10.67;;;6.40;99.90;;;;;;5093402;28;20208;-64
2024/01/25 05:10:25;;;;;;;38.47;10.77;;;6.30;99.90;;;;;;5093587;28;20240;-64
2024/01/25 05:12:51;;;;;;;37.87;10.13;;;6.30;99.90;;;;;;5093338;28;20638;-64
2024/01/25 05:15:16;;;;;;;34.93;10.10;;;6.20;99.90;;;;;;5096077;28;20157;-63
2024/01/25 05:17:42;;;;;;;35.30;10.00;;;6.20;99.90;;;;;;5097215;28;20189;-64
2024/01/25 05:20:08;;;;;;;34.57;9.73;;;6.20;99.90;;;;;;5097299;28;20230;-63
2024/01/25 05:22:40;;;;;;;35.60;10.10;;;6.10;99.90;;;;;;5097278;28;20241;-64
2024/01/25 05:25:06;;;;;;;33.33;10.40;;;6.10;99.90;;;;;;5095668;28;20530;-63
2024/01/25 05:27:34;;;;;;;33.80;10.00;;;6.10;99.90;;;;;;5095545;28;20173;-63
2024/01/25 05:30:00;;;;;;;27.17;10.03;;;6.10;99.90;;;;;;5097344;28;20547;-64
2024/01/25 05:32:25;;;;;;;37.33;10.73;;;6.00;99.90;;;;;;5097611;28;20176;-64
2024/01/25 05:34:51;;;;;;;32.70;10.53;;;6.00;99.90;;;;;;5097310;28;20634;-63
2024/01/25 05:37:17;;;;;;;39.10;9.37;;;6.00;99.90;;;;;;5096811;28;20179;-63
2024/01/25 05:39:43;;;;;;;28.40;9.13;;;5.90;99.90;;;;;;5095841;28;20645;-64
2024/01/25 05:42:08;;;;;;;32.77;9.30;;;5.90;99.90;;;;;;5097143;28;20181;-64
2024/01/25 05:44:34;;;;;;;36.13;9.77;;;5.90;99.90;;;;;;5097136;28;20535;-64
2024/01/25 05:47:00;;;;;;;36.90;10.53;;;5.90;99.90;;;;;;5097217;28;20196;-64
2024/01/25 05:49:26;;;;;;;33.13;10.37;;;5.90;99.90;;;;;;5095087;28;20195;-64
2024/01/25 05:51:52;;;;;;;38.70;11.43;;;5.90;99.90;;;;;;5096959;28;20256;-64
2024/01/25 05:54:17;;;;;;;38.70;10.20;;;5.80;99.90;;;;;;5096746;28;20173;-64
2024/01/25 05:56:43;;;;;;;40.97;10.67;;;5.80;99.90;;;;;;5096227;28;20706;-64
2024/01/25 05:59:09;;;;;;;39.77;10.53;;;5.80;99.90;;;;;;5096491;28;20250;-63
2024/01/25 06:01:35;;;;;;;46.40;11.63;;;5.70;99.90;;;;;;5096248;28;20298;-63
2024/01/25 06:04:00;;;;;;;33.00;11.37;;;5.70;99.90;;;;;;5096516;28;20540;-63
2024/01/25 06:06:26;;;;;;;34.77;11.10;;;5.60;99.90;;;;;;5095458;28;20289;-64
2024/01/25 06:08:52;;;;;;;37.13;11.27;;;5.50;99.90;;;;;;5096987;28;20203;-63
2024/01/25 06:11:18;;;;;;;39.63;10.53;;;5.50;99.90;;;;;;5096255;28;20192;-64
2024/01/25 06:13:44;;;;;;;34.73;10.80;;;5.40;99.90;;;;;;5096456;28;20169;-64
2024/01/25 06:16:10;;;;;;;33.27;10.77;;;5.40;99.90;;;;;;5096133;28;20277;-64
2024/01/25 06:18:36;;;;;;;36.27;11.53;;;5.40;99.90;;;;;;5095722;28;20706;-64
2024/01/25 06:21:02;;;;;;;40.67;10.60;;;5.40;99.90;;;;;;5095837;28;20173;-63
2024/01/25 06:23:28;;;;;;;37.57;10.23;;;5.40;99.90;;;;;;5095634;28;20235;-63
2024/01/25 06:25:53;;;;;;;36.47;10.77;;;5.30;99.90;;;;;;5095546;28;20196;-63
2024/01/25 06:28:19;;;;;;;42.83;11.37;;;5.30;99.90;;;;;;5095504;28;20193;-63
2024/01/25 06:30:45;;;;;;;34.73;10.57;;;5.30;99.90;;;;;;5096087;28;20172;-64
2024/01/25 06:33:11;;;;;;;37.43;10.97;;;5.30;99.90;;;;;;5095678;28;20173;-65
2024/01/25 06:35:36;;;;;;;32.57;10.10;;;5.30;99.90;;;;;;5095973;28;20184;-65
2024/01/25 06:38:02;;;;;;;36.77;11.27;;;5.30;99.90;;;;;;5094051;28;20729;-64
2024/01/25 06:40:28;;;;;;;48.47;11.67;;;5.30;99.90;;;;;;5095412;28;20540;-64
2024/01/25 06:42:53;;;;;;;36.40;11.27;;;5.20;99.90;;;;;;5095354;28;20265;-65
2024/01/25 06:45:19;;;;;;;44.43;11.63;;;5.20;99.90;;;;;;5095256;28;20212;-65
2024/01/25 06:47:46;;;;;;;35.20;11.23;;;5.20;99.90;;;;;;5095187;28;20185;-64
2024/01/25 06:50:12;;;;;;;42.73;12.23;;;5.10;99.90;;;;;;5095474;28;20198;-65
2024/01/25 06:52:37;;;;;;;46.37;11.87;;;5.10;99.90;;;;;;5095146;28;20173;-64
2024/01/25 06:55:03;;;;;;;43.57;11.00;;;5.10;99.90;;;;;;5095136;28;20161;-64
2024/01/25 06:57:29;;;;;;;33.03;11.87;;;5.10;99.90;;;;;;5095417;28;20189;-64
2024/01/25 06:59:55;;;;;;;41.53;12.37;;;5.10;99.90;;;;;;5095025;28;20171;-64
2024/01/25 07:02:21;;;;;;;36.03;12.40;;;5.00;99.90;;;;;;5094915;28;20252;-65
2024/01/25 07:04:46;;;;;;;48.77;13.20;;;5.00;99.90;;;;;;5093624;28;20177;-63
2024/01/25 07:07:12;;;;;;;37.90;12.20;;;5.00;99.90;;;;;;5094799;28;20201;-65
2024/01/25 07:09:38;;;;;;;49.80;12.60;;;4.90;99.90;;;;;;5094863;28;20193;-65
2024/01/25 07:12:04;;;;;;;37.50;11.77;;;4.90;99.90;;;;;;5095467;28;20172;-65
2024/01/25 07:14:30;;;;;;;38.63;12.47;;;4.90;99.90;;;;;;5094713;28;20201;-65
2024/01/25 07:16:56;;;;;;;38.73;12.90;;;4.90;99.90;;;;;;5095191;28;20212;-65
2024/01/25 07:19:21;;;;;;;49.03;12.37;;;4.90;99.90;;;;;;5094474;28;20200;-65
2024/01/25 07:21:47;;;;;;;44.47;14.33;;;4.90;99.90;;;;;;5095357;28;20177;-65
2024/01/25 07:24:13;;;;;;;44.33;14.13;;;4.90;99.90;;;;;;5094562;28;20177;-65
2024/01/25 07:26:39;;;;;;;44.47;14.77;;;4.90;99.90;;;;;;5093751;28;20224;-65
2024/01/25 07:29:05;;;;;;;40.90;14.83;;;4.90;99.90;;;;;;5093098;28;20632;-65
2024/01/25 07:31:30;;;;;;;52.07;16.00;;;4.90;99.90;;;;;;5094418;28;20669;-65
2024/01/25 07:33:56;;;;;;;55.33;17.50;;;4.90;99.90;;;;;;5094361;28;20178;-65
2024/01/25 07:36:22;;;;;;;50.30;15.63;;;4.90;99.90;;;;;;5094909;28;20204;-65
2024/01/25 07:38:48;;;;;;;46.50;15.90;;;4.90;99.90;;;;;;5094190;28;20200;-65
2024/01/25 07:41:17;;;;;;;49.23;14.80;;;4.90;99.90;;;;;;5092847;28;20260;-65
2024/01/25 07:43:43;;;;;;;54.93;15.50;;;4.90;99.90;;;;;;5094013;28;20658;-65
2024/01/25 07:46:10;;;;;;;55.60;15.20;;;4.90;99.90;;;;;;5094235;28;20220;-65
2024/01/25 07:48:36;;;;;;;46.43;13.70;;;4.90;99.90;;;;;;5092637;28;20201;-65
2024/01/25 07:51:02;;;;;;;52.27;13.33;;;4.90;99.90;;;;;;5094276;28;20168;-65
2024/01/25 07:53:28;;;;;;;42.60;14.20;;;5.00;99.90;;;;;;5094031;28;20633;-65
2024/01/25 07:55:54;;;;;;;44.97;14.47;;;5.00;99.90;;;;;;5093939;28;20177;-65
2024/01/25 07:58:20;;;;;;;49.73;14.53;;;5.00;99.90;;;;;;5093981;28;20208;-65
2024/01/25 08:00:46;;;;;;;46.47;15.63;;;5.00;99.90;;;;;;5094237;28;20169;-65
2024/01/25 08:03:11;;;;;;;45.93;15.63;;;5.00;99.90;;;;;;5094214;28;20170;-65
2024/01/25 08:05:37;;;;;;;43.63;14.13;;;5.00;99.90;;;;;;5093836;28;20196;-65
2024/01/25 08:08:03;;;;;;;46.83;14.53;;;5.10;99.90;;;;;;5094097;28;20248;-65
2024/01/25 08:10:29;;;;;;;50.03;15.63;;;5.10;99.90;;;;;;5094199;28;20169;-64
2024/01/25 08:12:55;;;;;;;53.80;16.00;;;5.10;99.90;;;;;;5093985;28;20222;-65
2024/01/25 08:15:21;;;;;;;59.70;17.10;;;5.10;99.90;;;;;;5094294;28;20213;-65
2024/01/25 08:17:46;;;;;;;50.73;16.73;;;5.10;99.90;;;;;;5093757;28;20280;-65
2024/01/25 08:20:15;;;;;;;51.07;16.47;;;5.10;99.90;;;;;;5093828;28;20186;-65
2024/01/25 08:22:42;;;;;;;64.30;18.57;;;5.20;99.90;;;;;;5093631;28;20646;-65
2024/01/25 08:25:08;;;;;;;58.70;18.30;;;5.20;99.90;;;;;;5093367;28;20169;-65
2024/01/25 08:27:34;;;;;;;64.83;20.23;;;5.20;99.90;;;;;;5092056;28;20181;-65
2024/01/25 08:29:59;;;;;;;63.77;20.03;;;5.20;99.90;;;;;;5093508;28;20169;-65
2024/01/25 08:32:25;;;;;;;62.10;22.63;;;5.20;99.90;;;;;;5093664;28;20245;-65
2024/01/25 08:34:51;;;;;;;60.10;21.07;;;5.30;99.90;;;;;;5093416;28;20541;-65
2024/01/25 08:37:17;;;;;;;57.40;20.77;;;5.30;99.90;;;;;;5093594;28;20204;-65
2024/01/25 08:39:45;;;;;;;66.97;24.20;;;5.40;99.90;;;;;;5093560;28;20211;-65
2024/01/25 08:42:11;;;;;;;66.33;24.60;;;5.40;99.90;;;;;;5093303;28;20646;-65
2024/01/25 08:44:39;;;;;;;62.97;24.17;;;5.50;99.90;;;;;;5093559;28;20204;-65
2024/01/25 08:47:05;;;;;;;64.60;24.37;;;5.40;99.90;;;;;;5093212;28;20224;-64
2024/01/25 08:49:31;;;;;;;73.87;26.30;;;5.50;99.90;;;;;;5094057;28;20558;-64
2024/01/25 08:51:56;;;;;;;74.60;26.27;;;5.50;99.90;;;;;;5097701;28;20165;-64
2024/01/25 08:54:22;;;;;;;79.87;27.57;;;5.50;99.90;;;;;;5097297;28;20165;-65
2024/01/25 08:56:48;;;;;;;73.33;27.17;;;5.50;99.90;;;;;;5097459;28;20540;-65
2024/01/25 08:59:14;;;;;;;63.33;26.07;;;5.50;99.90;;;;;;5097309;28;20554;-65
2024/01/25 09:01:39;;;;;;;78.87;26.20;;;5.60;99.90;;;;;;5097196;28;20172;-65
2024/01/25 09:04:05;;;;;;;76.17;26.00;;;5.60;99.90;;;;;;5097667;28;20218;-65
2024/01/25 09:06:31;;;;;;;75.13;27.80;;;5.70;99.90;;;;;;5097422;28;20207;-64
2024/01/25 09:08:57;;;;;;;74.27;28.47;;;5.70;99.90;;;;;;5097069;28;20665;-65
2024/01/25 09:11:23;;;;;;;55.37;24.30;;;5.70;99.90;;;;;;5097138;28;20176;-65
2024/01/25 09:13:48;;;;;;;68.33;25.60;;;5.80;99.90;;;;;;5097080;28;20180;-65
2024/01/25 09:16:16;;;;;;;75.90;28.10;;;5.90;99.90;;;;;;5097538;28;20625;-65
2024/01/25 09:18:42;;;;;;;73.63;28.53;;;5.90;99.90;;;;;;5097453;28;20201;-65
2024/01/25 09:21:07;;;;;;;75.50;26.83;;;5.90;99.90;;;;;;5097264;28;20184;-65
2024/01/25 09:23:33;;;;;;;73.50;28.60;;;5.90;99.90;;;;;;5095556;28;20200;-65
2024/01/25 09:25:59;;;;;;;78.70;28.50;;;6.00;99.90;;;;;;5095587;28;20242;-65
2024/01/25 09:28:25;;;;;;;77.27;28.80;;;6.00;99.90;;;;;;5096750;28;20189;-65
2024/01/25 09:30:51;;;;;;;67.03;28.13;;;6.10;99.90;;;;;;5096803;28;20549;-65
2024/01/25 09:33:18;;;;;;;84.07;29.43;;;6.20;99.90;;;;;;5096680;28;20173;-65
2024/01/25 09:35:46;;;;;;;74.83;27.00;;;6.20;99.90;;;;;;5096610;28;20199;-65
2024/01/25 09:38:12;;;;;;;74.03;27.07;;;6.30;99.90;;;;;;5095323;28;20681;-65
2024/01/25 09:40:38;;;;;;;71.27;27.53;;;6.30;99.90;;;;;;5096486;28;20254;-65
2024/01/25 09:43:04;;;;;;;73.53;27.77;;;6.40;99.90;;;;;;5096446;28;20207;-65
2024/01/25 09:45:31;;;;;;;72.60;26.77;;;6.40;99.90;;;;;;5096654;28;20276;-65
2024/01/25 09:47:57;;;;;;;65.23;26.93;;;6.40;99.90;;;;;;5096363;28;20658;-65
2024/01/25 09:50:23;;;;;;;53.37;25.60;;;6.40;99.90;;;;;;5096331;28;20166;-65
2024/01/25 09:52:57;;;;;;;75.73;25.57;;;6.40;99.90;;;;;;5096573;28;20173;-65
2024/01/25 09:55:27;;;;;;;63.53;26.27;;;6.40;99.90;;;;;;5096172;28;20165;-65
2024/01/25 09:57:58;;;;;;;57.77;25.60;;;6.40;99.90;;;;;;5095965;28;20212;-65
2024/01/25 10:00:24;;;;;;;55.47;25.77;;;6.40;99.90;;;;;;5095975;28;20153;-65
2024/01/25 10:02:51;;;;;;;71.47;24.83;;;6.40;99.90;;;;;;5096317;28;20252;-65
2024/01/25 10:05:17;;;;;;;67.43;24.80;;;6.40;99.90;;;;;;5095874;28;20170;-65
2024/01/25 10:07:45;;;;;;;48.77;22.50;;;6.50;99.90;;;;;;5096405;28;20273;-65
2024/01/25 10:10:12;;;;;;;61.33;23.23;;;6.50;99.90;;;;;;5095964;28;20681;-65
2024/01/25 10:12:39;;;;;;;65.63;23.73;;;6.60;99.90;;;;;;5095960;28;20252;-65
2024/01/25 10:15:05;;;;;;;61.03;22.13;;;6.60;99.90;;;;;;5096218;28;20169;-65
2024/01/25 10:17:32;;;;;;;60.20;22.37;;;6.60;99.90;;;;;;5095880;28;20181;-65
2024/01/25 10:19:58;;;;;;;61.40;22.27;;;6.60;99.90;;;;;;5095883;28;20177;-65
2024/01/25 10:22:24;;;;;;;57.53;22.00;;;6.70;99.90;;;;;;5095900;28;20166;-65
2024/01/25 10:24:50;;;;;;;67.90;22.00;;;6.70;99.90;;;;;;5095835;28;20185;-65
2024/01/25 10:27:16;;;;;;;56.07;21.27;;;6.80;99.90;;;;;;5096056;28;20253;-65
2024/01/25 10:29:42;;;;;;;48.83;20.03;;;6.80;99.90;;;;;;5095629;28;20192;-65
2024/01/25 10:32:12;;;;;;;53.03;20.77;;;6.80;99.90;;;;;;5095890;28;20653;-66
2024/01/25 10:34:39;;;;;;;48.00;20.10;;;6.80;99.90;;;;;;5095937;28;20169;-65
2024/01/25 10:37:06;;;;;;;51.80;20.30;;;6.80;99.90;;;;;;5094155;28;20565;-65
2024/01/25 10:39:33;;;;;;;54.60;18.90;;;6.80;99.90;;;;;;5095551;28;20196;-65
2024/01/25 10:42:00;;;;;;;57.43;20.07;;;6.90;99.90;;;;;;5094314;28;20207;-65
2024/01/25 10:44:26;;;;;;;51.30;18.97;;;6.90;99.90;;;;;;5095327;28;20165;-65
2024/01/25 10:46:54;;;;;;;51.87;17.60;;;7.00;99.90;;;;;;5095283;28;20617;-65
2024/01/25 10:49:20;;;;;;;47.90;18.33;;;7.10;99.90;;;;;;5093848;28;20228;-66
2024/01/25 10:51:46;;;;;;;47.00;17.10;;;7.20;99.90;;;;;;5095107;28;20669;-65
2024/01/25 10:54:14;;;;;;;43.07;16.17;;;7.20;99.90;;;;;;5095096;28;20252;-65
2024/01/25 10:56:43;;;;;;;39.57;14.90;;;7.20;99.90;;;;;;5095088;28;20192;-65
2024/01/25 10:59:10;;;;;;;48.40;15.33;;;7.10;99.90;;;;;;5095018;28;20674;-65
2024/01/25 11:01:37;;;;;;;44.33;15.33;;;7.00;99.90;;;;;;5095034;28;20218;-65
2024/01/25 11:04:03;;;;;;;49.30;15.10;;;7.00;99.90;;;;;;5094916;28;20173;-65
2024/01/25 11:06:29;;;;;;;37.23;14.23;;;7.00;99.90;;;;;;5095085;28;20201;-65
2024/01/25 11:09:08;;;;;;;49.50;15.10;;;7.10;99.90;;;;;;5094715;28;20192;-65
2024/01/25 11:11:37;;;;;;;36.77;15.80;;;7.10;94.00;;;;;;5094400;28;20188;-65
2024/01/25 11:14:03;;;;;;;47.20;16.23;;;7.10;99.90;;;;;;5094590;28;20629;-65
2024/01/25 11:16:31;;;;;;;47.93;17.30;;;7.10;99.90;;;;;;5093357;28;20185;-65
2024/01/25 11:19:05;;;;;;;44.87;16.03;;;7.10;99.90;;;;;;5094555;28;20184;-65
2024/01/25 11:21:47;;;;;;;50.97;15.97;;;7.10;99.90;;;;;;5093354;28;20177;-65
2024/01/25 11:24:20;;;;;;;45.07;17.80;;;7.10;99.90;;;;;;5093277;28;20170;-65
2024/01/25 11:26:47;;;;;;;49.20;16.27;;;7.10;99.90;;;;;;5094553;28;20717;-65
2024/01/25 11:29:16;;;;;;;56.43;17.23;;;7.10;99.90;;;;;;5094261;28;20284;-65
2024/01/25 11:31:47;;;;;;;48.60;17.17;;;7.10;99.90;;;;;;5093048;28;20208;-65
2024/01/25 11:34:17;;;;;;;38.57;14.80;;;7.10;99.90;;;;;;5094831;28;20532;-65
2024/01/25 11:36:44;;;;;;;41.90;16.73;;;7.10;99.90;;;;;;5094898;28;20236;-65
2024/01/25 11:39:11;;;;;;;45.03;17.00;;;7.20;99.90;;;;;;5094508;28;20288;-65
2024/01/25 11:41:37;;;;;;;44.00;15.47;;;7.20;89.70;;;;;;5094397;28;20173;-65
2024/01/25 11:44:03;;;;;;;41.07;14.47;;;7.30;94.60;;;;;;5094207;28;20173;-65
2024/01/25 11:46:30;;;;;;;45.40;14.13;;;7.40;50.00;;;;;;5094422;28;20197;-65
2024/01/25 11:48:58;;;;;;;54.97;15.83;;;7.50;57.30;;;;;;5094384;28;20321;-65
2024/01/25 11:51:24;;;;;;;40.53;14.50;;;7.60;13.80;;;;;;5094076;28;20177;-65
2024/01/25 11:53:50;;;;;;;41.70;13.93;;;7.60;1.00;;;;;;5094093;28;20171;-65
2024/01/25 11:56:26;;;;;;;41.47;15.27;;;7.60;1.00;;;;;;5094452;28;20173;-65
2024/01/25 11:58:52;;;;;;;35.03;13.53;;;7.80;1.00;;;;;;5093841;28;20269;-65
2024/01/25 12:01:19;;;;;;;33.97;13.97;;;7.90;1.00;;;;;;5093827;28;20218;-65
2024/01/25 12:03:45;;;;;;;40.03;15.47;;;7.90;1.00;;;;;;5094240;28;20170;-65
2024/01/25 12:06:12;;;;;;;42.73;14.30;;;7.90;1.00;;;;;;5093890;28;20568;-65
2024/01/25 12:08:38;;;;;;;32.40;12.90;;;7.80;1.00;;;;;;5094022;28;20213;-65
2024/01/25 12:11:11;;;;;;;48.30;15.07;;;7.80;1.00;;;;;;5093733;28;20583;-65
2024/01/25 12:13:40;;;;;;;37.23;13.57;;;7.80;1.00;;;;;;5094432;28;20537;-65
2024/01/25 12:16:07;;;;;;;40.87;14.40;;;7.90;1.00;;;;;;5094162;28;20168;-65
2024/01/25 12:18:35;;;;;;;31.60;12.83;;;8.00;1.00;;;;;;5093875;28;20193;-65
2024/01/25 12:21:04;;;;;;;42.57;14.47;;;8.00;1.00;;;;;;5093817;28;20669;-64
2024/01/25 12:23:40;;;;;;;35.53;12.57;;;8.00;1.00;;;;;;5093571;28;20260;-64
2024/01/25 12:26:07;;;;;;;38.00;12.63;;;7.90;1.00;;;;;;5093547;28;20196;-64
2024/01/25 12:28:34;;;;;;;46.43;12.27;;;7.90;1.00;;;;;;5093454;28;20193;-64
2024/01/25 12:31:02;;;;;;;35.47;12.80;;;8.00;1.00;;;;;;5093555;28;20559;-64
2024/01/25 12:33:29;;;;;;;34.43;11.60;;;8.00;1.00;;;;;;5092021;28;20657;-64
2024/01/25 12:35:55;;;;;;;38.43;12.23;;;8.10;1.00;;;;;;5093372;28;20173;-65
2024/01/25 12:38:22;;;;;;;40.37;12.27;;;8.20;99.90;;;;;;5093519;28;20193;-64
2024/01/25 12:40:49;;;;;;;32.83;11.37;;;8.30;99.90;;;;;;5093968;28;20173;-64
2024/01/25 12:43:18;;;;;;;32.20;10.80;;;8.30;99.90;;;;;;5093206;28;20256;-64
2024/01/25 12:45:44;;;;;;;36.03;11.27;;;8.30;99.90;;;;;;5093141;28;20196;-64
2024/01/25 12:48:10;;;;;;;27.63;10.40;;;8.30;77.90;;;;;;5091742;28;20197;-65
2024/01/25 12:50:37;;;;;;;36.23;10.47;;;8.30;99.90;;;;;;5093322;28;20702;-64
2024/01/25 12:53:03;;;;;;;30.10;10.60;;;8.30;99.90;;;;;;5093210;28;20263;-64
2024/01/25 12:55:30;;;;;;;38.23;11.83;;;8.30;8.90;;;;;;5093284;28;20180;-64
2024/01/25 12:57:57;;;;;;;34.23;9.93;;;8.30;1.00;;;;;;5093096;28;20208;-64
2024/01/25 13:00:23;;;;;;;30.33;9.50;;;8.40;1.00;;;;;;5093398;28;20169;-64
2024/01/25 13:02:50;;;;;;;31.70;9.73;;;8.40;1.00;;;;;;5093110;28;20171;-64
2024/01/25 13:05:16;;;;;;;23.40;10.80;;;8.30;1.00;;;;;;5093415;28;20634;-64
2024/01/25 13:07:42;;;;;;;32.77;9.87;;;8.30;1.00;;;;;;5093041;28;20173;-64
2024/01/25 13:10:11;;;;;;;32.17;9.37;;;8.30;73.10;;;;;;5092959;28;20170;-64
2024/01/25 13:12:39;;;;;;;38.57;11.20;;;8.40;99.90;;;;;;5093065;28;20172;-64
2024/01/25 13:15:08;;;;;;;27.70;9.70;;;8.40;72.10;;;;;;5093067;28;20195;-64
2024/01/25 13:17:37;;;;;;;27.10;9.37;;;8.50;1.00;;;;;;5093443;28;20197;-65
2024/01/25 13:20:07;;;;;;;26.37;9.90;;;8.50;99.90;;;;;;5091745;28;20256;-64
2024/01/25 13:22:34;;;;;;;28.73;10.30;;;8.50;99.90;;;;;;5092845;28;20173;-64
2024/01/25 13:25:00;;;;;;;37.87;9.47;;;8.50;1.00;;;;;;5093173;28;20226;-64
2024/01/25 13:27:27;;;;;;;33.27;10.43;;;8.50;1.00;;;;;;5092791;28;20283;-64
2024/01/25 13:29:53;;;;;;;31.97;9.50;;;8.50;2.00;;;;;;5091569;28;20177;-64
2024/01/25 13:32:19;;;;;;;36.30;9.47;;;8.40;99.90;;;;;;5092872;28;20542;-65